Avella, Pennsylvania
Current Conditions -  °F | °C
As of 9:44 PM on Friday 31 Oct 2014 (Local Time) from KHLG Reporting Station
Light Rain Light Rain  
Wind Chill: 38°   Ceiling: 1000
Heat Index: 41°   Visibility: 4mi
Dew Point: 39°   Wind: 5mph
Humidity: 93%   Direction: 60°ENE
Pressure: 29.88"   Gusts: NA
Location:  40.28°N, 80.46°W
Report Text: KHLG 010144Z 06004KT 4SM -RA BR SCT004 BKN010 OVC022 05/04 A2988 RMK AO2 P0003 T00500039
Loading
Personal Weather Stations






























Interactive Weather Map
Tropical Storm Tracking
New forecast layout! Learn more

10-Day Weather Forecast

Advertisements
Track Severe Weather on mobile